Time;durP1;ratioP1;P1;durP2;ratioP2;P2;SDS_P1;SDS_P2;PMS_P1;PMS_P2;Temp;Humidity;BMP_temperature;BMP_pressure;BME280_temperature;BME280_humidity;BME280_pressure;Samples;Min_cycle;Max_cycle;Signal;HPM_P1;HPM_P2
2022/04/30 00:02:11;;;;;;;13.75;7.40;;;;;;;15.35;59.71;99307.50;5072386;28;20017;-49
2022/04/30 00:04:42;;;;;;;15.40;7.45;;;;;;;15.31;59.57;99308.97;5071046;28;20036;-49
2022/04/30 00:07:08;;;;;;;10.27;7.13;;;;;;;15.25;59.77;99302.72;5072266;28;20548;-50
2022/04/30 00:09:36;;;;;;;17.00;7.90;;;;;;;15.19;59.98;99311.50;5072232;28;20020;-49
2022/04/30 00:12:02;;;;;;;15.80;8.30;;;;;;;15.14;60.03;99304.22;5072093;28;20023;-50
2022/04/30 00:14:29;;;;;;;15.77;10.45;;;;;;;15.08;60.32;99306.91;5072161;28;20025;-50
2022/04/30 00:16:55;;;;;;;12.38;7.40;;;;;;;15.01;60.51;99298.22;5070814;28;20028;-50
2022/04/30 00:19:22;;;;;;;9.23;7.47;;;;;;;14.93;60.87;99299.28;5072078;28;20422;-50
2022/04/30 00:21:48;;;;;;;13.32;8.43;;;;;;;14.91;60.84;99294.22;5072022;28;20024;-49
2022/04/30 00:24:14;;;;;;;12.27;8.57;;;;;;;14.86;61.25;99294.03;5072027;28;20107;-49
2022/04/30 00:26:40;;;;;;;17.08;8.80;;;;;;;14.83;61.20;99298.94;5070658;28;20103;-50
2022/04/30 00:29:07;;;;;;;12.65;10.73;;;;;;;14.83;61.32;99299.75;5071741;28;20071;-50
2022/04/30 00:31:34;;;;;;;25.02;13.48;;;;;;;14.82;61.34;99298.13;5071824;28;20475;-49
2022/04/30 00:34:01;;;;;;;49.65;43.25;;;;;;;14.80;61.34;99299.38;5071899;28;20437;-50
2022/04/30 00:36:28;;;;;;;27.35;19.40;;;;;;;14.75;61.60;99297.38;5070525;28;20521;-50
2022/04/30 00:38:54;;;;;;;26.27;21.25;;;;;;;14.70;61.41;99295.34;5071836;28;20103;-50
2022/04/30 00:41:21;;;;;;;72.60;57.90;;;;;;;14.69;61.61;99299.03;5071825;28;20025;-50
2022/04/30 00:43:49;;;;;;;17.52;11.65;;;;;;;14.66;61.78;99298.63;5070470;28;20029;-51
2022/04/30 00:46:16;;;;;;;13.32;9.65;;;;;;;14.60;62.15;99295.00;5070509;28;20505;-49
2022/04/30 00:48:43;;;;;;;13.50;9.63;;;;;;;14.57;61.86;99306.00;5071746;28;20017;-51
2022/04/30 00:51:10;;;;;;;20.15;8.88;;;;;;;14.57;61.92;99298.06;5071593;28;20025;-50
2022/04/30 00:53:40;;;;;;;17.92;8.75;;;;;;;14.55;62.30;99300.09;5071689;28;20154;-50
2022/04/30 00:56:11;;;;;;;14.48;8.90;;;;;;;14.49;62.68;99290.38;5069818;28;20403;-50
2022/04/30 00:58:42;;;;;;;17.25;8.90;;;;;;;14.45;62.66;99292.63;5071676;28;20020;-50
2022/04/30 01:01:09;;;;;;;17.90;11.43;;;;;;;14.41;62.47;99294.06;5070416;28;20028;-50
2022/04/30 01:03:36;;;;;;;15.65;9.55;;;;;;;14.33;62.92;99289.03;5070284;28;20020;-50
2022/04/30 01:06:04;;;;;;;16.90;9.98;;;;;;;14.25;63.25;99291.91;5071604;28;20480;-50
2022/04/30 01:08:30;;;;;;;18.55;10.02;;;;;;;14.23;63.09;99293.94;5071861;28;20025;-50
2022/04/30 01:11:03;;;;;;;12.70;9.07;;;;;;;14.19;63.33;99286.41;5070233;28;20028;-49
2022/04/30 01:13:37;;;;;;;31.50;25.02;;;;;;;14.20;63.44;99276.66;5071406;28;20052;-50
2022/04/30 01:16:06;;;;;;;16.77;10.15;;;;;;;14.23;63.29;99280.72;5071560;28;20025;-50
2022/04/30 01:18:36;;;;;;;14.00;9.02;;;;;;;14.24;63.31;99283.16;5070104;28;20020;-50
2022/04/30 01:21:10;;;;;;;23.67;12.93;;;;;;;14.22;63.70;99273.81;5071452;28;20028;-50
2022/04/30 01:23:36;;;;;;;13.35;9.57;;;;;;;14.21;63.74;99280.13;5071779;28;20028;-50
2022/04/30 01:26:03;;;;;;;19.95;17.85;;;;;;;14.21;63.63;99274.84;5071451;28;20021;-50
2022/04/30 01:28:29;;;;;;;13.52;10.55;;;;;;;14.18;63.66;99268.97;5071313;28;20067;-50
2022/04/30 01:30:56;;;;;;;13.90;12.20;;;;;;;14.16;63.78;99272.81;5069779;28;20122;-50
2022/04/30 01:38:50;;;;;;;12.68;10.50;;;;;;;14.17;64.10;99266.53;5071340;28;20105;-50
2022/04/30 01:41:16;;;;;;;12.95;10.25;;;;;;;14.21;64.19;99262.47;5071522;28;20024;-49
2022/04/30 01:43:43;;;;;;;14.63;8.90;;;;;;;14.30;64.16;99260.38;5071232;28;20017;-49
2022/04/30 01:46:09;;;;;;;13.32;10.10;;;;;;;14.41;63.56;99262.38;5071227;28;20081;-49
2022/04/30 01:48:36;;;;;;;12.30;9.35;;;;;;;14.37;63.57;99264.63;5069893;28;20031;-50
2022/04/30 01:51:02;;;;;;;17.15;10.13;;;;;;;14.33;63.19;99263.41;5069814;28;20017;-50
2022/04/30 01:53:28;;;;;;;19.55;11.63;;;;;;;14.33;63.54;99258.13;5071080;28;20036;-50
2022/04/30 01:55:53;;;;;;;13.30;10.10;;;;;;;14.39;63.77;99259.94;5071120;28;20100;-50
2022/04/30 01:58:20;;;;;;;19.05;11.18;;;;;;;14.47;63.41;99258.88;5069822;28;20490;-50
2022/04/30 02:00:46;;;;;;;12.10;9.30;;;;;;;14.46;63.08;99254.59;5071097;28;20024;-51
2022/04/30 02:03:15;;;;;;;18.25;9.85;;;;;;;14.41;62.83;99254.44;5071105;28;20103;-50
2022/04/30 02:05:41;;;;;;;18.08;10.27;;;;;;;14.32;62.80;99255.69;5071033;28;20078;-50
2022/04/30 02:08:10;;;;;;;18.92;10.57;;;;;;;14.17;62.80;99253.34;5072111;28;20031;-50
2022/04/30 02:10:38;;;;;;;19.08;13.15;;;;;;;14.00;63.48;99258.25;5074538;28;20090;-50
2022/04/30 02:13:06;;;;;;;12.98;11.05;;;;;;;13.85;63.69;99250.59;5074489;28;20023;-49
2022/04/30 02:15:34;;;;;;;14.82;9.52;;;;;;;13.75;63.68;99247.59;5074491;28;20095;-49
2022/04/30 02:18:02;;;;;;;15.30;10.05;;;;;;;13.69;64.11;99251.84;5074493;28;20028;-49
2022/04/30 02:20:29;;;;;;;17.23;11.70;;;;;;;13.57;64.12;99250.88;5074419;28;20397;-50
2022/04/30 02:23:01;;;;;;;13.10;10.48;;;;;;;13.49;64.72;99246.63;5073029;28;20028;-49
2022/04/30 02:25:28;;;;;;;21.27;9.73;;;;;;;13.39;64.34;99241.75;5074301;28;20020;-49
2022/04/30 02:28:00;;;;;;;22.98;14.82;;;;;;;13.39;65.06;99246.22;5072947;28;20111;-49
2022/04/30 02:30:27;;;;;;;16.27;10.48;;;;;;;13.43;64.69;99252.72;5072629;28;20143;-50
2022/04/30 02:33:03;;;;;;;13.30;9.90;;;;;;;13.51;65.24;99246.41;5074110;28;20495;-50
2022/04/30 02:35:30;;;;;;;;;;;;;;;13.68;64.33;99250.25;5074521;28;20103;-50
2022/04/30 02:37:59;;;;;;;16.20;10.13;;;;;;;13.75;64.13;99243.13;5074087;28;20003;-50
2022/04/30 02:40:26;;;;;;;20.73;11.05;;;;;;;13.82;64.18;99248.38;5074006;28;20031;-50
2022/04/30 02:42:52;;;;;;;25.27;11.45;;;;;;;13.78;63.84;99245.34;5072684;28;20075;-49
2022/04/30 02:45:20;;;;;;;22.20;12.50;;;;;;;13.73;64.24;99247.78;5072604;28;20064;-49
2022/04/30 02:47:56;;;;;;;12.77;10.50;;;;;;;13.72;63.77;99245.34;5072578;28;20025;-50
2022/04/30 02:50:23;;;;;;;16.88;9.63;;;;;;;13.65;64.30;99244.56;5073879;28;20020;-50
2022/04/30 02:52:50;;;;;;;14.45;9.93;;;;;;;13.59;63.92;99241.72;5073765;28;20020;-50
2022/04/30 02:55:16;;;;;;;16.52;10.30;;;;;;;13.55;64.32;99243.16;5072454;28;20028;-49
2022/04/30 03:00:30;;;;;;;24.88;12.38;;;;;;;13.35;64.81;99247.66;5073875;28;20036;-50
2022/04/30 03:02:56;;;;;;;13.88;10.50;;;;;;;13.30;65.04;99239.53;5072284;28;20024;-49
2022/04/30 03:05:22;;;;;;;13.15;10.32;;;;;;;13.25;64.96;99245.41;5073549;28;20109;-49
2022/04/30 03:07:48;;;;;;;17.92;11.63;;;;;;;13.13;65.11;99242.56;5073510;28;20029;-50
2022/04/30 03:10:14;;;;;;;19.05;12.25;;;;;;;13.04;65.50;99241.16;5073450;28;20074;-50
2022/04/30 03:12:40;;;;;;;14.10;11.40;;;;;;;12.94;66.00;99240.75;5073334;28;20067;-50
2022/04/30 03:15:07;;;;;;;18.65;11.95;;;;;;;12.97;66.20;99237.69;5073331;28;20040;-50
2022/04/30 03:23:02;;;;;;;19.40;13.48;;;;;;;13.05;66.57;99239.31;5073269;28;20094;-49
2022/04/30 03:25:28;;;;;;;17.33;12.60;;;;;;;13.10;66.07;99237.72;5088671;28;20020;-49
2022/04/30 03:27:54;;;;;;;15.10;11.23;;;;;;;13.10;65.75;99231.59;5071769;28;20051;-49
2022/04/30 03:30:19;;;;;;;12.10;10.38;;;;;;;13.06;65.80;99235.66;5072725;28;20504;-50
2022/04/30 03:32:45;;;;;;;25.95;11.88;;;;;;;12.98;65.76;99231.44;5071577;28;20111;-50
2022/04/30 03:35:11;;;;;;;20.27;16.33;;;;;;;12.92;65.77;99237.50;5072882;28;20025;-50
2022/04/30 03:37:37;;;;;;;17.23;12.25;;;;;;;12.81;65.99;99233.63;5071549;28;20641;-50
2022/04/30 03:40:04;;;;;;;16.83;11.40;;;;;;;12.69;65.76;99230.78;5072897;28;20490;-49
2022/04/30 03:42:31;;;;;;;12.60;10.45;;;;;;;12.75;66.45;99235.22;5071435;28;20032;-48
2022/04/30 03:44:57;;;;;;;20.08;11.07;;;;;;;12.82;66.11;99235.25;5072719;28;20028;-50
2022/04/30 03:47:22;;;;;;;18.42;11.93;;;;;;;13.02;66.33;99230.00;5072695;28;20100;-49
2022/04/30 03:49:48;;;;;;;18.02;11.07;;;;;;;13.12;66.07;99229.56;5072636;28;20458;-49
2022/04/30 03:52:14;;;;;;;17.73;9.75;;;;;;;13.12;65.68;99229.56;5071147;28;20100;-50
2022/04/30 03:54:39;;;;;;;13.60;9.95;;;;;;;13.13;65.57;99223.31;5072568;28;20021;-49
2022/04/30 03:57:06;;;;;;;14.82;10.30;;;;;;;13.10;65.73;99218.44;5072804;28;20541;-49
2022/04/30 03:59:33;;;;;;;12.15;10.85;;;;;;;13.11;65.49;99230.59;5072448;28;20055;-50
2022/04/30 04:02:00;;;;;;;13.38;8.68;;;;;;;12.96;64.90;99225.53;5072400;28;20056;-50
2022/04/30 04:04:26;;;;;;;11.63;9.32;;;;;;;12.80;64.81;99229.38;5072414;28;20078;-49
2022/04/30 04:06:53;;;;;;;16.45;14.70;;;;;;;12.68;65.19;99233.63;5070958;28;20119;-49
2022/04/30 04:09:19;;;;;;;16.80;11.10;;;;;;;12.67;65.37;99232.00;5070976;28;20052;-49
2022/04/30 04:11:45;;;;;;;13.20;10.52;;;;;;;12.75;65.34;99237.06;5072165;28;20506;-50
2022/04/30 04:19:39;;;;;;;13.77;10.02;;;;;;;12.96;64.71;99234.25;5072177;28;20031;-49
2022/04/30 04:22:05;;;;;;;12.85;9.93;;;;;;;12.98;64.17;99234.84;5072051;28;20449;-49
2022/04/30 04:27:17;;;;;;;48.05;42.97;;;;;;;13.07;64.40;99234.66;5072309;28;20104;-49
2022/04/30 04:29:44;;;;;;;16.90;14.85;;;;;;;13.21;64.25;99238.91;5070987;28;20048;-50
2022/04/30 04:32:09;;;;;;;20.75;12.88;;;;;;;13.38;64.54;99239.31;5071873;28;20020;-50
2022/04/30 04:34:35;;;;;;;23.88;13.35;;;;;;;13.61;64.54;99240.72;5070685;28;20453;-50
2022/04/30 04:37:01;;;;;;;19.40;14.23;;;;;;;13.78;63.68;99240.06;5070555;28;20102;-49
2022/04/30 04:39:26;;;;;;;41.90;28.67;;;;;;;13.87;63.66;99245.13;5071902;28;20025;-49
2022/04/30 04:41:52;;;;;;;31.92;28.73;;;;;;;13.95;63.54;99252.81;5071833;28;20485;-50
2022/04/30 04:44:21;;;;;;;27.20;16.85;;;;;;;14.13;63.47;99238.94;5070526;28;20573;-50
2022/04/30 04:46:47;;;;;;;20.52;14.43;;;;;;;14.38;63.41;99249.56;5071822;28;20375;-49
2022/04/30 04:49:13;;;;;;;18.90;12.73;;;;;;;14.60;62.40;99249.28;5071837;28;20074;-49
2022/04/30 04:51:39;;;;;;;16.83;13.75;;;;;;;14.70;62.13;99252.28;5070359;28;20074;-49
2022/04/30 04:54:05;;;;;;;18.35;13.95;;;;;;;14.74;61.96;99250.81;5070389;28;20028;-50
2022/04/30 04:56:31;;;;;;;29.48;25.67;;;;;;;14.78;61.92;99258.09;5071745;28;20112;-50
2022/04/30 04:58:58;;;;;;;15.82;12.57;;;;;;;14.88;61.15;99262.13;5071688;28;20024;-50
2022/04/30 05:01:25;;;;;;;19.75;14.43;;;;;;;14.73;61.40;99257.16;5071642;28;20020;-50
2022/04/30 05:03:51;;;;;;;17.73;12.73;;;;;;;14.70;61.59;99263.66;5070308;28;20509;-50
2022/04/30 05:06:17;;;;;;;15.23;13.73;;;;;;;14.68;61.28;99256.97;5071561;28;20123;-50
2022/04/30 05:08:43;;;;;;;25.52;20.38;;;;;;;14.46;61.90;99256.44;5070292;28;20478;-50
2022/04/30 05:11:10;;;;;;;20.45;16.50;;;;;;;14.55;61.74;99255.19;5070226;28;20451;-50
2022/04/30 05:13:35;;;;;;;17.83;13.77;;;;;;;14.57;61.87;99255.81;5070165;28;20028;-50
2022/04/30 05:16:02;;;;;;;17.55;12.77;;;;;;;14.71;61.79;99254.72;5070501;28;20454;-50
2022/04/30 05:18:27;;;;;;;19.00;13.60;;;;;;;14.89;61.20;99261.09;5070163;28;20032;-50
2022/04/30 05:20:53;;;;;;;22.05;17.38;;;;;;;15.06;60.92;99259.53;5070138;28;20016;-50
2022/04/30 05:23:20;;;;;;;23.48;16.55;;;;;;;15.26;60.63;99261.22;5071420;28;20025;-50
2022/04/30 05:25:45;;;;;;;22.02;17.23;;;;;;;15.35;60.03;99260.75;5070109;28;20017;-50
2022/04/30 05:28:12;;;;;;;37.03;23.67;;;;;;;15.42;59.95;99270.44;5070073;28;20551;-49
2022/04/30 05:30:38;;;;;;;20.73;14.88;;;;;;;15.54;59.57;99274.00;5069840;28;20051;-49
2022/04/30 05:33:04;;;;;;;18.00;14.50;;;;;;;15.58;59.30;99277.81;5069889;28;20505;-50
2022/04/30 05:35:30;;;;;;;16.77;15.07;;;;;;;15.58;58.85;99275.19;5070013;28;20024;-50
2022/04/30 05:37:55;;;;;;;18.33;16.08;;;;;;;15.62;58.61;99275.56;5070026;28;20023;-49
2022/04/30 05:40:21;;;;;;;16.45;14.73;;;;;;;15.51;58.80;99277.06;5071241;28;20031;-50
2022/04/30 05:42:47;;;;;;;21.27;15.43;;;;;;;15.49;59.25;99279.13;5074944;28;20021;-49
2022/04/30 05:45:12;;;;;;;34.05;27.83;;;;;;;15.60;58.85;99274.97;5075011;28;20028;-50
2022/04/30 05:47:38;;;;;;;24.83;16.38;;;;;;;15.68;58.74;99279.97;5074975;28;20032;-50
2022/04/30 05:50:05;;;;;;;17.35;15.43;;;;;;;15.71;58.63;99277.69;5074902;28;20490;-50
2022/04/30 05:52:33;;;;;;;27.95;25.23;;;;;;;15.84;58.03;99276.78;5073506;28;20021;-50
2022/04/30 05:55:03;;;;;;;28.25;16.08;;;;;;;15.79;57.83;99276.63;5074839;28;20017;-50
2022/04/30 05:57:31;;;;;;;38.42;19.52;;;;;;;15.81;57.89;99271.09;5074822;28;20028;-49
2022/04/30 05:59:57;;;;;;;29.08;15.93;;;;;;;15.85;57.46;99277.56;5074714;28;20025;-49
2022/04/30 06:02:23;;;;;;;36.30;23.17;;;;;;;15.91;57.37;99271.41;5073356;28;20048;-50
2022/04/30 06:04:49;;;;;;;34.30;17.00;;;;;;;16.45;56.77;99271.59;5074696;28;20048;-49
2022/04/30 06:07:15;;;;;;;23.02;17.60;;;;;;;18.04;53.75;99262.91;5074567;28;20025;-50
2022/04/30 06:09:41;;;;;;;29.23;14.75;;;;;;;19.93;49.20;99264.44;5074595;28;20066;-50
2022/04/30 06:12:08;;;;;;;21.73;13.32;;;;;;;21.34;45.32;99253.81;5074458;28;20025;-50
2022/04/30 06:14:34;;;;;;;28.65;13.55;;;;;;;22.58;42.66;99258.69;5074525;28;20498;-50
2022/04/30 06:17:00;;;;;;;22.65;12.85;;;;;;;23.68;40.12;99260.00;5074385;28;20027;-49
2022/04/30 06:19:26;;;;;;;30.80;16.35;;;;;;;24.53;38.22;99258.31;5074463;28;20020;-51
2022/04/30 06:21:53;;;;;;;27.17;14.95;;;;;;;25.20;36.71;99253.22;5074406;28;20032;-50
2022/04/30 06:24:19;;;;;;;19.92;13.02;;;;;;;25.76;35.79;99259.16;5074292;28;20101;-50
2022/04/30 06:26:45;;;;;;;32.72;12.10;;;;;;;26.29;34.62;99257.13;5074266;28;20498;-50
2022/04/30 06:29:13;;;;;;;21.25;11.38;;;;;;;26.69;33.66;99262.25;5072683;28;20032;-52
2022/04/30 06:31:39;;;;;;;18.77;12.10;;;;;;;27.10;32.53;99256.19;5074199;28;20399;-50
2022/04/30 06:34:05;;;;;;;21.05;12.18;;;;;;;27.56;31.52;99258.09;5074154;28;20058;-50
2022/04/30 06:36:31;;;;;;;18.75;11.18;;;;;;;28.12;30.99;99250.81;5074157;28;20060;-51
2022/04/30 06:38:57;;;;;;;16.35;12.63;;;;;;;28.35;30.19;99251.63;5074098;28;20028;-50
2022/04/30 06:41:23;;;;;;;23.08;12.15;;;;;;;28.43;30.29;99256.34;5074038;28;20020;-49
2022/04/30 06:43:50;;;;;;;23.33;11.02;;;;;;;28.70;29.60;99253.88;5073976;28;20024;-50
2022/04/30 06:46:16;;;;;;;21.95;12.40;;;;;;;29.05;29.05;99252.19;5073938;28;20024;-50
2022/04/30 06:48:43;;;;;;;24.42;10.57;;;;;;;29.43;28.93;99251.78;5072537;28;20029;-51
2022/04/30 06:51:11;;;;;;;186.68;168.23;;;;;;;29.56;28.55;99250.06;5072506;28;20027;-51
2022/04/30 06:59:10;;;;;;;20.23;16.70;;;;;;;29.46;28.50;99253.88;5074007;28;20094;-50
2022/04/30 07:04:11;;;;;;;30.70;12.57;;;;;;;29.17;28.42;99260.53;5073704;28;20020;-50
2022/04/30 07:06:38;;;;;;;53.17;16.20;;;;;;;29.23;28.48;99263.91;5073560;28;20032;-51
2022/04/30 07:09:07;;;;;;;33.22;12.20;;;;;;;29.08;28.60;99260.47;5073587;28;20029;-50
2022/04/30 07:11:32;;;;;;;62.55;16.45;;;;;;;28.74;29.10;99261.03;5072052;28;20479;-50
2022/04/30 07:13:58;;;;;;;74.65;19.40;;;;;;;28.57;29.23;99259.00;5073467;28;20031;-49
2022/04/30 07:16:24;;;;;;;54.08;13.57;;;;;;;28.68;28.86;99257.66;5073626;28;20407;-50
2022/04/30 07:18:50;;;;;;;42.85;12.85;;;;;;;28.92;28.83;99261.97;5073281;28;20057;-51
2022/04/30 07:21:16;;;;;;;12.77;9.13;;;;;;;29.28;28.37;99253.00;5073278;28;20039;-50
2022/04/30 07:23:43;;;;;;;41.63;12.18;;;;;;;29.38;27.91;99255.41;5073480;28;20024;-50
2022/04/30 07:26:09;;;;;;;20.08;8.85;;;;;;;29.84;27.23;99256.06;5073108;28;20013;-49
2022/04/30 07:28:35;;;;;;;17.75;9.18;;;;;;;29.98;26.94;99256.75;5073069;28;20032;-51
2022/04/30 07:31:08;;;;;;;22.60;8.27;;;;;;;30.55;26.29;99250.44;5071551;28;20076;-51
2022/04/30 07:33:34;;;;;;;15.60;8.27;;;;;;;30.95;25.69;99249.47;5072883;28;20024;-50
2022/04/30 07:36:00;;;;;;;16.13;6.57;;;;;;;31.19;25.14;99252.44;5072929;28;20028;-51
2022/04/30 07:38:26;;;;;;;10.18;7.00;;;;;;;31.45;25.02;99243.44;5071620;28;20052;-51
2022/04/30 07:40:52;;;;;;;14.13;6.65;;;;;;;31.49;24.80;99247.09;5072769;28;20039;-51
2022/04/30 07:43:18;;;;;;;8.55;5.85;;;;;;;31.57;24.51;99251.69;5072763;28;20445;-51
2022/04/30 07:45:44;;;;;;;6.70;5.63;;;;;;;31.80;24.32;99251.41;5072722;28;20108;-51
2022/04/30 07:48:10;;;;;;;6.55;5.38;;;;;;;31.82;24.20;99243.75;5072636;28;20021;-51
2022/04/30 07:50:36;;;;;;;7.82;4.93;;;;;;;31.90;24.25;99251.03;5072696;28;20033;-51
2022/04/30 07:53:07;;;;;;;5.43;4.15;;;;;;;31.96;23.85;99238.84;5072466;28;20049;-51
2022/04/30 07:55:33;;;;;;;8.35;4.25;;;;;;;31.98;23.64;99244.75;5071254;28;20040;-52
2022/04/30 07:58:02;;;;;;;6.88;5.00;;;;;;;32.15;23.57;99246.56;5072482;28;20021;-50
2022/04/30 08:00:28;;;;;;;7.03;4.38;;;;;;;32.12;23.12;99241.03;5072411;28;20028;-51
2022/04/30 08:02:58;;;;;;;6.15;4.00;;;;;;;31.96;23.47;99247.00;5072443;28;20025;-51
2022/04/30 08:05:24;;;;;;;6.75;3.38;;;;;;;31.87;23.33;99240.81;5071064;28;20447;-52
2022/04/30 08:07:50;;;;;;;7.57;4.00;;;;;;;32.09;23.22;99241.69;5072329;28;20024;-51
2022/04/30 08:10:17;;;;;;;7.35;3.40;;;;;;;32.17;23.29;99246.25;5072266;28;20050;-51
2022/04/30 08:12:43;;;;;;;6.78;3.40;;;;;;;32.11;22.82;99245.66;5070804;28;20032;-52
2022/04/30 08:15:09;;;;;;;8.07;4.10;;;;;;;32.12;22.89;99243.75;5072185;28;20020;-52
2022/04/30 08:17:35;;;;;;;9.95;3.80;;;;;;;31.94;23.17;99246.53;5070895;28;20020;-51
2022/04/30 08:20:02;;;;;;;14.02;3.67;;;;;;;31.51;23.57;99242.16;5070756;28;20034;-51
2022/04/30 08:22:28;;;;;;;21.58;4.97;;;;;;;31.68;23.85;99241.25;5072133;28;20020;-51
2022/04/30 08:24:53;;;;;;;9.35;4.35;;;;;;;31.62;23.78;99242.56;5070738;28;20024;-51
2022/04/30 08:27:20;;;;;;;9.43;3.67;;;;;;;31.44;23.98;99241.81;5070746;28;20490;-51
2022/04/30 08:29:46;;;;;;;19.30;6.60;;;;;;;31.49;24.03;99240.88;5071734;28;20043;-51
2022/04/30 08:32:11;;;;;;;48.28;8.88;;;;;;;31.76;23.71;99239.63;5071878;28;20032;-51
2022/04/30 08:34:39;;;;;;;30.95;8.98;;;;;;;32.11;23.59;99242.13;5070639;28;20135;-51
2022/04/30 08:37:05;;;;;;;28.83;7.10;;;;;;;32.51;22.92;99236.25;5071842;28;20110;-52
2022/04/30 08:39:31;;;;;;;32.45;8.35;;;;;;;32.72;22.48;99231.59;5071899;28;20463;-51
2022/04/30 08:41:58;;;;;;;28.80;6.88;;;;;;;32.92;22.16;99227.25;5070503;28;20119;-51
2022/04/30 08:44:25;;;;;;;46.50;10.90;;;;;;;33.08;22.51;99221.91;5070502;28;20103;-50
2022/04/30 08:46:51;;;;;;;32.47;6.93;;;;;;;33.57;22.00;99227.44;5071758;28;20024;-51
2022/04/30 08:49:17;;;;;;;56.28;11.02;;;;;;;34.05;21.52;99222.31;5071789;28;20056;-51
2022/04/30 08:51:42;;;;;;;47.38;10.98;;;;;;;34.24;20.83;99220.91;5070335;28;20490;-51
2022/04/30 08:54:08;;;;;;;42.05;9.23;;;;;;;34.28;21.14;99221.81;5071769;28;20020;-51
2022/04/30 08:56:38;;;;;;;31.77;7.72;;;;;;;34.32;21.18;99217.25;5070414;28;20028;-52
2022/04/30 08:59:08;;;;;;;33.17;8.88;;;;;;;34.55;20.63;99217.47;5070382;28;20524;-51
2022/04/30 09:01:47;;;;;;;32.63;7.88;;;;;;;34.68;20.77;99210.88;5070666;28;20106;-51
2022/04/30 09:04:14;;;;;;;16.85;5.65;;;;;;;34.34;20.93;99210.31;5071662;28;20509;-51
2022/04/30 09:06:48;;;;;;;14.45;4.75;;;;;;;34.02;21.06;99210.16;5071603;28;20454;-52
2022/04/30 09:09:30;;;;;;;15.70;4.85;;;;;;;34.17;21.27;99216.06;5070347;28;20036;-51
2022/04/30 09:12:07;;;;;;;35.97;8.40;;;;;;;34.64;20.74;99207.22;5071510;28;20457;-51
2022/04/30 09:14:33;;;;;;;25.50;8.18;;;;;;;35.22;20.29;99208.75;5071521;28;20032;-51
2022/04/30 09:17:03;;;;;;;27.30;5.78;;;;;;;35.53;19.69;99205.97;5074051;28;20025;-52
2022/04/30 09:19:29;;;;;;;12.60;4.05;;;;;;;35.30;19.88;99208.56;5074294;28;20033;-51
2022/04/30 09:21:55;;;;;;;8.10;3.92;;;;;;;34.76;20.28;99212.66;5075508;28;20028;-51
2022/04/30 09:24:21;;;;;;;11.77;3.60;;;;;;;34.88;20.26;99211.00;5074206;28;20082;-51
2022/04/30 09:26:46;;;;;;;12.50;4.38;;;;;;;34.92;20.28;99209.94;5075439;28;20025;-51
2022/04/30 09:29:20;;;;;;;25.48;7.03;;;;;;;34.98;20.32;99200.34;5075116;28;20024;-52
2022/04/30 09:31:51;;;;;;;26.60;6.57;;;;;;;35.05;20.35;99201.66;5075346;28;20457;-51
2022/04/30 09:39:47;;;;;;;9.27;4.63;;;;;;;36.17;18.99;99194.91;5075779;28;20520;-51
2022/04/30 09:42:13;;;;;;;6.53;4.07;;;;;;;36.17;18.82;99187.50;5073824;28;20032;-52
2022/04/30 09:44:39;;;;;;;6.82;3.63;;;;;;;36.14;18.90;99193.66;5075078;28;20441;-51
2022/04/30 09:47:07;;;;;;;6.57;2.92;;;;;;;36.14;18.24;99188.22;5073679;28;20027;-51
2022/04/30 09:55:03;;;;;;;6.43;3.00;;;;;;;36.15;17.97;99173.41;5074927;28;20035;-52
2022/04/30 09:57:34;;;;;;;7.20;3.65;;;;;;;35.86;18.01;99169.28;5073526;28;20031;-51
2022/04/30 10:00:01;;;;;;;4.75;2.67;;;;;;;35.69;17.92;99165.00;5074840;28;20125;-51
2022/04/30 10:02:31;;;;;;;4.10;2.38;;;;;;;35.56;18.27;99163.53;5074792;28;20021;-51
2022/04/30 10:04:57;;;;;;;7.13;3.15;;;;;;;35.57;17.81;99157.69;5074946;28;20025;-52
2022/04/30 10:07:25;;;;;;;4.60;2.90;;;;;;;35.38;18.23;99155.72;5074672;28;20074;-51
2022/04/30 10:10:09;;;;;;;6.40;2.50;;;;;;;35.38;17.30;99158.47;5074650;28;20039;-50
2022/04/30 10:12:46;;;;;;;6.40;3.13;;;;;;;35.24;17.38;99146.44;5074578;28;20020;-51
2022/04/30 10:15:16;;;;;;;7.90;2.95;;;;;;;34.28;16.39;99140.06;5074554;28;20040;-51
2022/04/30 10:17:45;;;;;;;10.18;3.40;;;;;;;33.36;17.35;99147.84;5074523;28;20082;-50
2022/04/30 10:20:21;;;;;;;7.82;3.05;;;;;;;33.04;18.46;99153.03;5074481;28;20057;-50
2022/04/30 10:22:52;;;;;;;4.03;2.92;;;;;;;33.22;19.04;99140.84;5074459;28;20086;-49
2022/04/30 10:25:18;;;;;;;7.70;2.95;;;;;;;33.72;19.07;99138.06;5074313;28;20079;-52
2022/04/30 10:27:47;;;;;;;6.45;3.55;;;;;;;34.18;18.83;99142.13;5073097;28;20021;-50
2022/04/30 10:30:23;;;;;;;12.40;3.58;;;;;;;34.30;18.10;99130.41;5074046;28;20468;-51
2022/04/30 10:32:59;;;;;;;11.32;4.88;;;;;;;34.21;18.33;99130.56;5074188;28;20452;-51
2022/04/30 10:35:36;;;;;;;9.32;3.92;;;;;;;33.91;17.09;99126.56;5074169;28;20020;-49
2022/04/30 10:38:08;;;;;;;7.78;3.83;;;;;;;32.76;18.08;99117.53;5074194;28;20024;-50
2022/04/30 10:40:41;;;;;;;11.25;3.30;;;;;;;32.24;18.67;99135.16;5074324;28;20036;-50
2022/04/30 10:43:17;;;;;;;6.55;3.15;;;;;;;32.07;18.04;99132.59;5074334;28;20070;-51
2022/04/30 10:45:43;;;;;;;10.50;4.53;;;;;;;31.79;18.68;99127.66;5072700;28;20024;-50
2022/04/30 10:48:09;;;;;;;7.68;3.55;;;;;;;31.55;19.35;99137.28;5073957;28;20031;-50
2022/04/30 10:50:35;;;;;;;8.15;3.78;;;;;;;31.64;19.91;99129.84;5073836;28;20028;-50
2022/04/30 10:53:01;;;;;;;6.95;5.03;;;;;;;32.17;19.53;99126.75;5073801;28;20020;-50
2022/04/30 10:55:27;;;;;;;6.10;3.60;;;;;;;32.49;19.37;99116.22;5073773;28;20033;-50
2022/04/30 10:57:54;;;;;;;7.13;3.50;;;;;;;32.56;18.69;99119.19;5073713;28;20021;-50
2022/04/30 11:00:22;;;;;;;7.25;4.50;;;;;;;32.75;17.95;99119.47;5073686;28;20055;-50
2022/04/30 11:02:49;;;;;;;10.02;4.80;;;;;;;33.01;17.99;99112.91;5072308;28;20028;-51
2022/04/30 11:05:25;;;;;;;6.13;4.18;;;;;;;32.69;17.87;99101.78;5073633;28;20052;-50
2022/04/30 11:07:51;;;;;;;14.88;6.70;;;;;;;32.19;18.04;99105.50;5073609;28;20417;-51
2022/04/30 11:10:17;;;;;;;6.63;3.15;;;;;;;31.64;19.14;99093.78;5072191;28;20028;-51
2022/04/30 11:12:44;;;;;;;4.85;4.32;;;;;;;31.22;19.00;99110.78;5073375;28;20020;-50
2022/04/30 11:15:11;;;;;;;10.68;4.40;;;;;;;31.27;19.24;99112.53;5073401;28;20029;-50
2022/04/30 11:17:48;;;;;;;7.53;5.00;;;;;;;31.83;18.98;99085.97;5073330;28;20031;-49
2022/04/30 11:20:24;;;;;;;4.95;3.00;;;;;;;32.27;18.46;99088.31;5071968;28;20024;-50
2022/04/30 11:22:54;;;;;;;9.52;3.58;;;;;;;32.40;18.33;99095.38;5073283;28;20028;-51
2022/04/30 11:25:20;;;;;;;9.45;4.30;;;;;;;32.53;18.33;99098.13;5071850;28;20060;-51
2022/04/30 11:27:46;;;;;;;6.90;4.13;;;;;;;32.83;17.96;99085.94;5073143;28;20075;-50
2022/04/30 11:30:12;;;;;;;4.03;2.63;;;;;;;32.38;18.34;99080.53;5071556;28;20458;-50
2022/04/30 11:32:38;;;;;;;6.47;3.42;;;;;;;31.93;18.17;99090.19;5072984;28;20025;-49
2022/04/30 11:35:05;;;;;;;5.13;3.60;;;;;;;31.57;18.68;99083.47;5071680;28;20021;-51
2022/04/30 11:37:38;;;;;;;4.00;2.65;;;;;;;31.56;18.45;99081.88;5072948;28;20082;-49
2022/04/30 11:40:04;;;;;;;5.10;2.43;;;;;;;31.63;17.70;99078.63;5072614;28;20025;-49
2022/04/30 11:42:30;;;;;;;10.10;4.90;;;;;;;31.65;18.22;99079.91;5071634;28;20024;-51
2022/04/30 11:44:56;;;;;;;6.88;4.13;;;;;;;31.79;18.22;99076.91;5072828;28;20074;-51
2022/04/30 11:47:22;;;;;;;6.25;3.00;;;;;;;31.84;17.78;99063.13;5072731;28;20030;-51
2022/04/30 11:49:47;;;;;;;7.70;5.28;;;;;;;31.53;17.39;99065.44;5072713;28;20556;-49
2022/04/30 11:52:16;;;;;;;10.82;5.13;;;;;;;31.23;17.78;99060.84;5072590;28;20108;-49
2022/04/30 11:54:43;;;;;;;8.45;4.20;;;;;;;30.93;18.99;99068.19;5071564;28;20568;-51
2022/04/30 11:57:09;;;;;;;5.07;3.20;;;;;;;31.45;18.19;99042.69;5071304;28;20024;-50
2022/04/30 11:59:40;;;;;;;5.20;2.80;;;;;;;31.57;17.56;99037.34;5071243;28;20028;-50
2022/04/30 12:02:08;;;;;;;9.00;6.88;;;;;;;31.64;17.44;99048.44;5071218;28;20032;-50
2022/04/30 12:04:35;;;;;;;8.88;3.60;;;;;;;31.78;17.77;99041.97;5072426;28;20052;-51
2022/04/30 12:07:07;;;;;;;6.80;4.25;;;;;;;31.21;17.58;99040.59;5071046;28;20031;-51